createdAt,value
2018-04-23T11:00:11.480Z,23.00
2018-04-23T11:02:40.217Z,23.00
2018-04-23T11:05:09.733Z,23.00
2018-04-23T11:07:39.521Z,23.00
2018-04-23T11:10:08.304Z,23.00
2018-04-23T11:12:37.090Z,23.10
2018-04-23T11:15:05.858Z,23.20
2018-04-23T11:17:34.964Z,23.20
2018-04-23T11:20:03.721Z,23.10
2018-04-23T11:22:32.793Z,23.10
2018-04-23T11:25:02.388Z,23.20
2018-04-23T11:27:31.997Z,23.20
2018-04-23T11:30:01.482Z,23.20
2018-04-23T11:32:31.301Z,23.20
2018-04-23T11:35:00.000Z,23.20
2018-04-23T11:37:29.460Z,23.20
2018-04-23T11:39:58.191Z,23.20
2018-04-23T11:42:28.008Z,23.30
2018-04-23T11:44:57.533Z,23.30
2018-04-23T11:47:26.502Z,23.30
2018-04-23T11:49:56.123Z,23.40
2018-04-23T11:52:24.925Z,23.30
2018-04-23T11:54:53.705Z,23.40
2018-04-23T11:57:22.522Z,23.40
2018-04-23T11:59:52.271Z,23.30
2018-04-23T12:02:21.065Z,23.30
2018-04-23T12:04:49.815Z,23.40
2018-04-23T12:07:19.326Z,23.40
2018-04-23T12:09:48.071Z,22.80
2018-04-23T12:12:17.947Z,23.40
2018-04-23T12:14:46.690Z,23.40
2018-04-23T12:17:16.569Z,23.40
2018-04-23T12:19:46.065Z,23.50
2018-04-23T12:22:14.889Z,23.30
2018-04-23T12:24:43.653Z,23.40
2018-04-23T12:27:13.206Z,23.40
2018-04-23T12:29:42.751Z,23.40
2018-04-23T12:32:11.477Z,23.40
2018-04-23T12:34:40.616Z,23.50
2018-04-23T12:37:09.390Z,23.50
2018-04-23T12:39:38.220Z,23.50
2018-04-23T12:42:07.323Z,23.50
2018-04-23T12:44:36.954Z,23.50
2018-04-23T12:47:05.988Z,23.40
2018-04-23T12:49:34.784Z,23.50
2018-04-23T12:52:03.840Z,23.50
2018-04-23T12:54:32.630Z,23.50
2018-04-23T12:57:01.464Z,23.50
2018-04-23T12:59:31.390Z,23.50
2018-04-23T13:08:44.784Z,23.50
2018-04-23T13:11:14.368Z,23.50
2018-04-23T13:13:43.687Z,23.60
2018-04-23T13:16:13.768Z,23.50
2018-04-23T13:18:42.731Z,23.50
2018-04-23T13:21:11.564Z,23.50
2018-04-23T13:23:40.405Z,23.50
2018-04-23T13:26:09.172Z,22.90
2018-04-23T13:28:38.715Z,23.50
2018-04-23T13:31:07.499Z,23.50
2018-04-23T13:33:36.572Z,23.50
2018-04-23T13:36:05.356Z,23.60
2018-04-23T13:38:34.969Z,23.60
2018-04-23T13:41:04.668Z,23.60
2018-04-23T13:43:34.293Z,23.60
2018-04-23T13:46:03.076Z,23.50
2018-04-23T13:48:32.133Z,23.60
2018-04-23T13:51:00.900Z,23.60
2018-04-23T13:53:29.804Z,23.60
2018-04-23T13:55:58.584Z,23.60
2018-04-23T13:58:27.357Z,23.20
2018-04-23T14:00:56.186Z,23.60
2018-04-23T14:03:25.356Z,23.60
2018-04-23T14:05:54.646Z,23.30
2018-04-23T14:08:23.468Z,23.60
2018-04-23T14:10:52.344Z,23.60
2018-04-23T14:13:21.905Z,23.60
2018-04-23T14:15:51.436Z,23.60
2018-04-23T14:18:20.365Z,23.60
2018-04-23T14:20:50.051Z,23.60
2018-04-23T14:23:19.247Z,23.60
2018-04-23T14:25:48.682Z,23.60
2018-04-23T14:28:17.656Z,23.60
2018-04-23T14:30:46.490Z,23.60
2018-04-23T14:33:41.054Z,23.60
2018-04-23T14:36:09.858Z,23.60
2018-04-23T14:38:39.749Z,23.60
2018-04-23T14:41:08.681Z,24.00
2018-04-23T14:43:37.585Z,23.60
2018-04-23T14:46:06.369Z,23.60
2018-04-23T14:48:35.436Z,23.60
2018-04-23T14:51:04.998Z,23.60
2018-04-23T14:53:33.867Z,23.50
2018-04-23T14:56:03.511Z,23.60
2018-04-23T14:58:32.614Z,23.10
2018-04-23T15:01:01.403Z,23.50
2018-04-23T15:03:30.181Z,23.60
2018-04-23T15:05:58.950Z,23.60
2018-04-23T15:08:28.973Z,23.60
2018-04-23T15:10:57.748Z,24.00
2018-04-23T15:13:26.556Z,23.60
2018-04-23T15:15:55.443Z,23.60
2018-04-23T15:18:24.303Z,23.60
2018-04-23T15:20:53.920Z,23.60
2018-04-23T15:23:23.194Z,23.50
2018-04-23T15:25:52.716Z,23.60
2018-04-23T15:28:21.670Z,23.60
2018-04-23T15:30:50.774Z,23.60
2018-04-23T15:33:19.556Z,23.60
2018-04-23T15:35:48.281Z,23.60
2018-04-23T15:38:17.358Z,23.60
2018-04-23T15:40:46.286Z,23.60
2018-04-23T15:43:15.151Z,23.70
2018-04-23T15:45:45.001Z,23.70
2018-04-23T15:48:13.754Z,23.60
2018-04-23T15:50:43.334Z,23.70
2018-04-23T15:53:12.246Z,23.60
2018-04-23T15:55:42.784Z,23.70
2018-04-23T15:58:12.597Z,23.70
2018-04-23T16:00:42.462Z,23.70
2018-04-23T16:03:11.361Z,23.60
2018-04-23T16:05:40.924Z,23.20
2018-04-23T16:08:11.621Z,23.60
2018-04-23T16:10:41.238Z,23.60
2018-04-23T16:13:10.869Z,23.60
2018-04-23T16:15:40.167Z,23.60
2018-04-23T16:18:09.046Z,23.60
2018-04-23T16:20:38.570Z,23.60
2018-04-23T16:23:07.343Z,23.60
2018-04-23T16:25:37.256Z,23.70
2018-04-23T16:28:06.848Z,23.70
2018-04-23T16:30:36.669Z,24.00
2018-04-23T16:33:06.264Z,23.70
2018-04-23T16:35:35.125Z,23.60
2018-04-23T16:38:04.166Z,23.10
2018-04-23T16:40:34.025Z,23.60
2018-04-23T16:43:02.968Z,23.60
2018-04-23T16:45:32.555Z,23.60
2018-04-23T16:48:01.466Z,23.60
2018-04-23T16:50:31.458Z,23.60
2018-04-23T16:53:00.181Z,23.60
2018-04-23T16:55:29.109Z,23.70
2018-04-23T16:57:58.039Z,23.70
2018-04-23T17:00:27.690Z,23.60
2018-04-23T17:02:56.468Z,23.60
2018-04-23T17:05:25.223Z,23.70
2018-04-23T17:07:54.245Z,24.10
2018-04-23T17:10:23.407Z,23.70
2018-04-23T17:12:52.474Z,23.70
2018-04-23T17:15:21.274Z,23.70
2018-04-23T17:17:50.495Z,23.80
2018-04-23T17:20:20.027Z,24.00
2018-04-23T17:22:49.558Z,24.30
2018-04-23T17:25:19.069Z,23.60
2018-04-23T17:27:47.914Z,23.70
2018-04-23T17:30:17.332Z,23.70
2018-04-23T17:32:46.902Z,23.70
2018-04-23T17:35:15.745Z,23.80
2018-04-23T17:37:44.545Z,23.70
2018-04-23T17:40:14.175Z,23.70
2018-04-23T17:42:43.373Z,23.60
2018-04-23T17:45:16.979Z,23.70
2018-04-23T17:47:46.101Z,23.70
2018-04-23T17:50:14.974Z,23.70
2018-04-23T17:52:43.899Z,23.70
2018-04-23T17:55:12.990Z,23.70
2018-04-23T17:57:42.803Z,23.70
2018-04-23T18:00:11.621Z,23.70
2018-04-23T18:02:40.450Z,23.70
2018-04-23T18:05:09.475Z,23.80
2018-04-23T18:10:36.346Z,23.80
2018-04-23T18:13:08.632Z,23.50
2018-04-23T18:15:39.172Z,23.80
2018-04-23T18:18:09.616Z,23.80
2018-04-23T18:20:38.917Z,23.80
2018-04-23T18:23:08.083Z,23.80
2018-04-23T18:25:37.061Z,23.80
2018-04-23T18:28:06.589Z,23.80
2018-04-23T18:30:35.524Z,23.80
2018-04-23T18:33:04.900Z,23.80
2018-04-23T18:35:34.560Z,23.80
2018-04-23T18:38:04.102Z,23.70
2018-04-23T18:40:33.760Z,23.80
2018-04-23T18:43:02.836Z,23.80
2018-04-23T18:45:31.751Z,23.80
2018-04-23T18:48:00.698Z,23.80
2018-04-23T18:50:30.279Z,23.80
2018-04-23T18:52:59.798Z,23.70
2018-04-23T18:55:28.713Z,23.80
2018-04-23T18:58:02.226Z,23.80
2018-04-23T19:00:34.947Z,23.70
2018-04-23T19:03:18.874Z,23.80
2018-04-23T19:05:48.650Z,23.80
2018-04-23T19:08:19.105Z,23.80
2018-04-23T19:10:47.967Z,23.80
2018-04-23T19:13:18.157Z,23.40
2018-04-23T19:15:47.212Z,23.80
2018-04-23T19:18:16.772Z,23.80
2018-04-23T19:20:46.536Z,23.80
2018-04-23T19:23:25.583Z,23.80
2018-04-23T19:25:58.324Z,23.80
2018-04-23T19:28:28.646Z,23.80
2018-04-23T19:30:57.814Z,23.80
2018-04-23T19:33:26.664Z,23.80
2018-04-23T19:35:55.553Z,23.80
2018-04-23T19:38:25.072Z,23.80
2018-04-23T19:40:53.963Z,23.80
